Time;durP1;ratioP1;P1;durP2;ratioP2;P2;SDS_P1;SDS_P2;PMS_P1;PMS_P2;Temp;Humidity;BMP_temperature;BMP_pressure;BME280_temperature;BME280_humidity;BME280_pressure;Samples;Min_cycle;Max_cycle;Signal;HPM_P1;HPM_P2
2021/05/10 00:00:14;;;;;;;4.70;2.30;;;;;;;12.98;48.48;100576.19;5030438;28;20033;-37
2021/05/10 00:02:40;;;;;;;3.13;2.30;;;;;;;13.14;48.33;100561.69;5030475;28;20021;-37
2021/05/10 00:05:06;;;;;;;5.10;2.38;;;;;;;13.06;48.26;100562.66;5030402;28;20492;-36
2021/05/10 00:07:31;;;;;;;3.20;2.53;;;;;;;13.05;48.61;100566.34;5030693;28;20446;-36
2021/05/10 00:09:57;;;;;;;6.18;2.50;;;;;;;12.97;48.99;100564.69;5030353;28;20033;-36
2021/05/10 00:12:22;;;;;;;3.55;2.28;;;;;;;13.05;48.83;100563.69;5030290;28;20021;-36
2021/05/10 00:14:48;;;;;;;3.53;2.17;;;;;;;13.27;48.56;100564.38;5030319;28;20025;-37
2021/05/10 00:17:14;;;;;;;4.95;2.35;;;;;;;13.08;48.12;100560.63;5030520;28;20024;-36
2021/05/10 00:19:39;;;;;;;5.00;2.35;;;;;;;13.16;47.74;100565.78;5030029;28;20021;-37
2021/05/10 00:22:05;;;;;;;3.65;2.40;;;;;;;12.97;48.13;100567.34;5030569;28;20147;-36
2021/05/10 00:24:30;;;;;;;3.17;2.47;;;;;;;13.12;47.74;100561.88;5030255;28;20457;-37
2021/05/10 00:26:56;;;;;;;2.75;2.28;;;;;;;12.98;47.48;100563.63;5030043;28;20036;-36
2021/05/10 00:29:21;;;;;;;2.45;2.20;;;;;;;12.68;48.45;100579.13;5029908;28;20401;-36
2021/05/10 00:31:47;;;;;;;3.20;2.20;;;;;;;12.47;48.56;100572.84;5030806;28;20079;-36
2021/05/10 00:34:13;;;;;;;3.22;2.50;;;;;;;12.26;49.16;100565.72;5030251;28;20489;-36
2021/05/10 00:36:39;;;;;;;4.60;2.35;;;;;;;12.55;48.03;100560.38;5030673;28;20021;-36
2021/05/10 00:39:04;;;;;;;3.60;2.22;;;;;;;12.33;49.22;100565.75;5030644;28;20033;-36
2021/05/10 00:41:30;;;;;;;3.50;2.40;;;;;;;12.36;48.95;100561.88;5030400;28;20048;-36
2021/05/10 00:43:56;;;;;;;4.53;2.28;;;;;;;12.08;49.22;100563.53;5030107;28;20024;-37
2021/05/10 00:46:21;;;;;;;3.28;2.20;;;;;;;11.83;50.04;100560.41;5030150;28;20035;-37
2021/05/10 00:48:46;;;;;;;3.80;2.50;;;;;;;11.96;50.22;100562.41;5030200;28;20362;-37
2021/05/10 00:51:12;;;;;;;4.50;2.45;;;;;;;12.48;48.87;100563.81;5028975;28;20121;-37
2021/05/10 00:53:37;;;;;;;4.10;2.30;;;;;;;12.45;49.13;100560.69;5030410;28;20450;-37
2021/05/10 00:56:03;;;;;;;4.75;2.40;;;;;;;12.54;48.33;100569.38;5030089;28;20401;-37
2021/05/10 00:58:28;;;;;;;2.70;2.10;;;;;;;12.58;48.07;100563.44;5030400;28;20047;-37
2021/05/10 01:00:54;;;;;;;3.10;2.13;;;;;;;12.66;48.50;100560.63;5028961;28;20030;-37
2021/05/10 01:03:19;;;;;;;4.25;2.40;;;;;;;12.71;47.55;100560.03;5030281;28;20021;-37
2021/05/10 01:05:46;;;;;;;3.17;2.30;;;;;;;12.64;48.43;100559.16;5030196;28;20018;-37
2021/05/10 01:08:11;;;;;;;4.75;2.40;;;;;;;12.91;47.54;100563.63;5030260;28;20100;-37
2021/05/10 01:10:37;;;;;;;3.05;2.33;;;;;;;12.89;47.72;100570.19;5030107;28;20018;-37
2021/05/10 01:13:03;;;;;;;2.70;2.40;;;;;;;12.99;47.89;100562.63;5029887;28;20049;-37
2021/05/10 01:15:30;;;;;;;4.88;2.40;;;;;;;12.96;47.93;100564.88;5028236;28;20057;-37
2021/05/10 01:17:55;;;;;;;4.45;2.40;;;;;;;12.84;47.84;100561.94;5030070;28;20110;-37
2021/05/10 01:20:22;;;;;;;5.60;2.55;;;;;;;12.99;47.52;100559.97;5030089;28;20033;-37
2021/05/10 01:22:54;;;;;;;3.58;2.33;;;;;;;13.08;47.47;100568.63;5029813;28;20027;-37
2021/05/10 01:25:24;;;;;;;3.58;2.45;;;;;;;13.09;47.37;100562.25;5029935;28;20014;-37
2021/05/10 01:27:49;;;;;;;3.67;2.35;;;;;;;13.15;47.77;100553.44;5029868;28;20037;-37
2021/05/10 01:30:17;;;;;;;3.80;2.30;;;;;;;13.13;48.09;100552.00;5028808;28;20021;-37
2021/05/10 01:32:43;;;;;;;4.65;2.65;;;;;;;13.24;47.20;100554.91;5030041;28;20116;-37
2021/05/10 01:35:09;;;;;;;5.25;2.55;;;;;;;13.03;48.49;100552.38;5029748;28;20033;-37
2021/05/10 01:37:35;;;;;;;6.60;2.45;;;;;;;13.16;47.93;100552.41;5029917;28;20109;-37
2021/05/10 01:40:00;;;;;;;3.63;2.60;;;;;;;13.20;48.61;100552.84;5029923;28;20021;-36
2021/05/10 01:42:26;;;;;;;4.28;2.35;;;;;;;13.12;47.91;100556.53;5029819;28;20481;-36
2021/05/10 01:44:52;;;;;;;4.13;2.38;;;;;;;13.06;47.11;100550.13;5030254;28;20087;-36
2021/05/10 01:47:17;;;;;;;3.00;2.38;;;;;;;13.24;47.13;100549.56;5032436;28;20104;-36
2021/05/10 01:49:47;;;;;;;3.38;2.45;;;;;;;13.03;47.35;100539.84;5033566;28;20452;-37
2021/05/10 01:52:13;;;;;;;5.53;2.50;;;;;;;13.02;48.09;100553.38;5033392;28;20711;-37
2021/05/10 01:54:40;;;;;;;4.32;2.42;;;;;;;12.94;48.55;100548.22;5033063;28;20025;-37
2021/05/10 01:57:05;;;;;;;3.72;2.40;;;;;;;12.91;48.13;100554.81;5033097;28;20397;-37
2021/05/10 01:59:31;;;;;;;5.60;2.60;;;;;;;12.75;48.57;100557.78;5033031;28;20026;-36
2021/05/10 02:01:56;;;;;;;4.28;2.50;;;;;;;12.59;48.68;100556.28;5032846;28;20026;-36
2021/05/10 02:04:22;;;;;;;4.43;2.78;;;;;;;12.71;48.47;100550.16;5033002;28;20468;-36
2021/05/10 02:06:47;;;;;;;5.57;2.75;;;;;;;12.60;49.44;100561.41;5032519;28;20040;-36
2021/05/10 02:09:12;;;;;;;4.90;2.50;;;;;;;12.67;49.25;100564.13;5031322;28;20026;-36
2021/05/10 02:11:38;;;;;;;5.15;2.88;;;;;;;12.75;48.95;100555.94;5032895;28;20025;-35
2021/05/10 02:14:04;;;;;;;3.35;2.40;;;;;;;12.67;49.52;100562.25;5032580;28;20473;-36
2021/05/10 02:16:29;;;;;;;5.30;2.30;;;;;;;12.74;48.26;100556.97;5032514;28;20108;-37
2021/05/10 02:18:57;;;;;;;3.55;2.65;;;;;;;12.78;47.58;100566.25;5032209;28;20027;-36
2021/05/10 02:21:26;;;;;;;4.30;2.60;;;;;;;12.54;48.54;100556.03;5032464;28;20101;-36
2021/05/10 02:23:51;;;;;;;5.53;2.78;;;;;;;12.42;48.86;100561.09;5031369;28;20018;-36
2021/05/10 02:26:17;;;;;;;9.70;2.75;;;;;;;12.41;49.95;100567.44;5032464;28;20025;-37
2021/05/10 02:28:42;;;;;;;4.35;2.80;;;;;;;12.58;49.11;100567.97;5032264;28;20040;-36
2021/05/10 02:31:08;;;;;;;3.63;2.70;;;;;;;12.67;48.35;100570.28;5032231;28;20025;-36
2021/05/10 02:33:34;;;;;;;4.45;2.50;;;;;;;12.58;48.14;100570.63;5032215;28;20398;-36
2021/05/10 02:36:00;;;;;;;5.25;2.55;;;;;;;12.68;48.58;100571.94;5032325;28;20553;-37
2021/05/10 02:38:25;;;;;;;3.22;2.72;;;;;;;12.40;49.27;100574.63;5032346;28;20029;-36
2021/05/10 02:40:51;;;;;;;5.78;3.88;;;;;;;12.23;49.16;100575.97;5032237;28;20033;-37
2021/05/10 02:43:17;;;;;;;9.00;2.95;;;;;;;12.43;48.49;100573.41;5031821;28;20377;-36
2021/05/10 02:45:43;;;;;;;5.75;2.90;;;;;;;12.42;48.51;100572.59;5030611;28;20055;-37
2021/05/10 02:48:08;;;;;;;4.25;2.70;;;;;;;12.27;49.80;100571.88;5032141;28;20083;-37
2021/05/10 02:50:34;;;;;;;5.00;3.03;;;;;;;12.11;50.07;100578.34;5031712;28;20432;-37
2021/05/10 02:53:01;;;;;;;5.75;2.95;;;;;;;12.16;48.98;100575.91;5031853;28;20022;-37
2021/05/10 02:55:26;;;;;;;4.80;2.90;;;;;;;12.15;50.13;100574.25;5031716;28;20144;-37
2021/05/10 02:57:54;;;;;;;5.50;2.90;;;;;;;12.38;49.63;100579.34;5031923;28;20505;-37
2021/05/10 03:00:21;;;;;;;9.00;3.40;;;;;;;12.34;49.14;100572.75;5031963;28;20033;-37
2021/05/10 03:02:46;;;;;;;5.70;3.17;;;;;;;12.16;50.24;100578.56;5031750;28;20029;-37
2021/05/10 03:05:13;;;;;;;5.78;3.22;;;;;;;12.05;51.10;100577.25;5031768;28;20453;-37
2021/05/10 03:07:38;;;;;;;6.72;3.20;;;;;;;12.02;51.32;100587.50;5031328;28;20080;-36
2021/05/10 03:10:23;;;;;;;7.82;3.60;;;;;;;12.16;50.88;100583.09;5031709;28;20497;-37
2021/05/10 03:12:49;;;;;;;6.10;3.67;;;;;;;12.12;51.32;100578.13;5031413;28;20068;-37
2021/05/10 03:15:16;;;;;;;18.02;10.05;;;;;;;12.02;51.05;100582.97;5031293;28;20083;-36
2021/05/10 03:17:41;;;;;;;202.43;101.35;;;;;;;12.13;51.79;100579.78;5030348;28;20106;-37
2021/05/10 03:20:09;;;;;;;27.45;13.77;;;;;;;12.22;51.48;100593.81;5031552;28;20481;-37
2021/05/10 03:22:35;;;;;;;9.27;4.50;;;;;;;12.31;51.01;100589.16;5031167;28;20119;-37
2021/05/10 03:25:01;;;;;;;7.43;3.55;;;;;;;12.50;50.67;100587.63;5031387;28;20025;-37
2021/05/10 03:27:26;;;;;;;8.05;3.50;;;;;;;12.52;50.57;100589.09;5031293;28;20029;-36
2021/05/10 03:29:52;;;;;;;7.22;3.75;;;;;;;12.43;50.84;100590.28;5031093;28;20020;-36
2021/05/10 03:32:18;;;;;;;9.48;3.70;;;;;;;12.44;50.72;100589.25;5030969;28;20022;-37
2021/05/10 03:34:43;;;;;;;5.15;3.63;;;;;;;12.32;51.52;100593.47;5030983;28;20033;-37
2021/05/10 03:37:09;;;;;;;7.88;4.20;;;;;;;12.39;51.88;100593.50;5030998;28;20025;-37
2021/05/10 03:39:34;;;;;;;9.63;5.30;;;;;;;12.48;50.88;100593.16;5031574;28;20117;-37
2021/05/10 03:42:00;;;;;;;7.70;4.32;;;;;;;12.62;51.17;100595.91;5031229;28;20025;-36
2021/05/10 03:44:25;;;;;;;8.50;4.18;;;;;;;12.77;50.26;100591.28;5031159;28;20025;-36
2021/05/10 03:46:50;;;;;;;9.90;4.22;;;;;;;12.76;49.92;100594.19;5031139;28;20087;-36
2021/05/10 03:49:16;;;;;;;11.38;7.05;;;;;;;12.75;50.76;100592.50;5031117;28;20083;-36
2021/05/10 03:51:42;;;;;;;9.88;4.40;;;;;;;13.04;50.37;100586.06;5031021;28;20025;-36
2021/05/10 03:54:07;;;;;;;10.98;4.10;;;;;;;13.32;49.63;100599.38;5031134;28;20028;-36
2021/05/10 03:56:32;;;;;;;9.10;3.97;;;;;;;13.52;48.68;100594.09;5031144;28;20021;-36
2021/05/10 03:58:58;;;;;;;6.30;3.60;;;;;;;14.01;47.98;100590.25;5031373;28;20422;-36
2021/05/10 04:01:24;;;;;;;6.68;3.72;;;;;;;14.39;46.64;100594.13;5030915;28;20022;-36
2021/05/10 04:03:58;;;;;;;6.13;3.58;;;;;;;14.80;44.62;100588.53;5030874;28;20025;-36
2021/05/10 04:06:47;;;;;;;12.23;3.67;;;;;;;15.07;44.26;100591.13;5030867;28;20135;-35
2021/05/10 04:14:38;;;;;;;7.85;3.22;;;;;;;16.44;41.46;100589.81;5030631;28;20409;-36
2021/05/10 04:17:03;;;;;;;5.90;3.45;;;;;;;16.56;39.93;100591.56;5030570;28;20029;-36
2021/05/10 04:19:29;;;;;;;6.85;3.67;;;;;;;16.95;39.57;100591.38;5030554;28;20482;-37
2021/05/10 04:21:54;;;;;;;6.93;3.65;;;;;;;17.22;39.37;100594.56;5030584;28;20021;-37
2021/05/10 04:24:20;;;;;;;7.35;3.38;;;;;;;17.66;37.63;100586.28;5030646;28;20024;-37
2021/05/10 04:26:45;;;;;;;6.05;3.60;;;;;;;17.69;37.51;100589.34;5029410;28;20492;-38
2021/05/10 04:29:10;;;;;;;7.72;3.40;;;;;;;17.82;37.69;100590.19;5030260;28;20026;-37
2021/05/10 04:31:36;;;;;;;4.30;3.10;;;;;;;18.29;37.68;100598.38;5030656;28;20025;-37
2021/05/10 04:34:01;;;;;;;6.90;3.28;;;;;;;18.56;36.84;100601.41;5015397;28;20451;-36
2021/05/10 04:36:27;;;;;;;5.82;3.20;;;;;;;18.51;36.06;100598.63;5009642;28;20022;-37
2021/05/10 04:38:52;;;;;;;3.42;2.72;;;;;;;18.78;36.02;100598.94;5011514;28;20057;-37
2021/05/10 04:41:18;;;;;;;11.65;8.48;;;;;;;19.11;35.79;100606.41;5010793;28;20025;-37
2021/05/10 04:43:43;;;;;;;15.48;8.68;;;;;;;19.74;34.57;100614.59;5021452;28;20025;-37
2021/05/10 04:46:10;;;;;;;7.25;4.80;;;;;;;19.64;34.09;100611.72;5030036;28;20017;-37
2021/05/10 04:48:35;;;;;;;4.97;3.50;;;;;;;20.04;33.72;100614.31;5029675;28;20109;-37
2021/05/10 04:51:01;;;;;;;5.60;3.30;;;;;;;20.23;33.13;100614.88;5028933;28;20062;-37
2021/05/10 04:53:26;;;;;;;6.22;3.10;;;;;;;20.51;32.26;100610.44;5028784;28;20040;-37
2021/05/10 04:55:52;;;;;;;14.68;7.00;;;;;;;20.55;33.23;100611.59;5028600;28;20095;-37
2021/05/10 04:58:17;;;;;;;12.63;3.53;;;;;;;20.60;32.46;100617.09;5029904;28;20025;-37
2021/05/10 05:00:43;;;;;;;6.97;3.30;;;;;;;20.74;33.17;100614.03;5029686;28;20473;-38
2021/05/10 05:03:08;;;;;;;6.90;3.28;;;;;;;21.34;32.18;100623.97;5029617;28;20032;-38
2021/05/10 05:05:34;;;;;;;5.55;3.20;;;;;;;21.37;31.92;100615.34;5029325;28;20025;-38
2021/05/10 05:07:59;;;;;;;7.47;3.40;;;;;;;21.67;31.82;100614.88;5029258;28;20059;-37
2021/05/10 05:10:25;;;;;;;6.03;3.50;;;;;;;21.44;31.67;100621.41;5029489;28;20033;-37
2021/05/10 05:12:50;;;;;;;4.35;3.58;;;;;;;21.51;31.36;100623.09;5029724;28;20475;-37
2021/05/10 05:15:16;;;;;;;7.93;3.30;;;;;;;21.32;31.53;100619.88;5029387;28;20033;-37
2021/05/10 05:17:42;;;;;;;5.30;3.40;;;;;;;21.44;31.46;100617.91;5029838;28;20072;-39
2021/05/10 05:20:08;;;;;;;6.57;3.55;;;;;;;22.01;30.74;100622.78;5029257;28;20467;-37
2021/05/10 05:22:34;;;;;;;5.85;3.70;;;;;;;22.32;30.62;100608.69;5032991;28;20257;-38
2021/05/10 05:25:00;;;;;;;11.20;3.95;;;;;;;22.49;29.88;100622.88;5033436;28;20040;-38
2021/05/10 05:27:25;;;;;;;8.38;5.25;;;;;;;22.97;29.31;100612.00;5033447;28;20026;-37
2021/05/10 05:29:51;;;;;;;15.00;9.80;;;;;;;23.08;29.43;100602.06;5033396;28;20500;-36
2021/05/10 05:32:16;;;;;;;6.25;3.72;;;;;;;23.18;28.78;100607.50;5033259;28;20060;-37
2021/05/10 05:34:42;;;;;;;7.68;3.80;;;;;;;23.22;29.04;100609.41;5033064;28;20029;-37
2021/05/10 05:37:07;;;;;;;6.38;3.78;;;;;;;23.08;28.92;100608.28;5033044;28;20032;-37
2021/05/10 05:39:33;;;;;;;10.27;5.93;;;;;;;23.13;28.89;100605.59;5032663;28;20030;-37
2021/05/10 05:41:59;;;;;;;8.80;4.05;;;;;;;23.17;28.63;100611.28;5032523;28;20477;-37
2021/05/10 05:44:24;;;;;;;8.27;3.90;;;;;;;23.65;28.43;100616.59;5032797;28;20021;-37
2021/05/10 05:46:58;;;;;;;8.32;4.30;;;;;;;23.89;28.69;100614.19;5033142;28;20544;-37
2021/05/10 05:49:23;;;;;;;9.32;4.10;;;;;;;24.25;27.32;100603.31;5032008;28;20096;-38
2021/05/10 05:51:49;;;;;;;8.65;4.20;;;;;;;24.41;27.11;100607.63;5032447;28;20140;-37
2021/05/10 05:54:14;;;;;;;8.52;4.05;;;;;;;24.67;26.81;100611.13;5032378;28;20087;-38
2021/05/10 05:56:40;;;;;;;10.90;4.30;;;;;;;24.35;27.45;100611.44;5032726;28;20403;-37
2021/05/10 05:59:05;;;;;;;4.82;3.50;;;;;;;25.12;26.50;100608.53;5014868;28;20021;-40
2021/05/10 06:01:30;;;;;;;8.20;4.07;;;;;;;25.34;25.77;100611.72;5032464;28;20488;-38
2021/05/10 06:03:56;;;;;;;11.38;4.15;;;;;;;25.52;26.14;100612.13;5032424;28;20075;-38
2021/05/10 06:06:21;;;;;;;6.72;3.67;;;;;;;25.53;25.91;100617.31;5032529;28;20025;-38
2021/05/10 06:08:47;;;;;;;6.82;3.83;;;;;;;25.68;25.78;100616.41;5032591;28;20406;-38
2021/05/10 06:11:13;;;;;;;10.43;4.35;;;;;;;25.79;25.90;100606.22;5032862;28;20025;-37
2021/05/10 06:13:38;;;;;;;14.07;4.57;;;;;;;25.33;26.40;100601.09;5031948;28;20448;-37
2021/05/10 06:16:04;;;;;;;6.25;4.00;;;;;;;25.86;25.52;100603.19;5031488;28;20513;-37
2021/05/10 06:18:30;;;;;;;8.20;4.13;;;;;;;26.27;25.11;100595.50;5031664;28;20056;-38
2021/05/10 06:20:55;;;;;;;11.13;4.30;;;;;;;26.32;24.60;100606.31;5031974;28;20041;-38
2021/05/10 06:23:21;;;;;;;7.22;4.22;;;;;;;26.75;24.79;100604.81;5031561;28;20021;-37
2021/05/10 06:25:46;;;;;;;9.40;4.20;;;;;;;27.08;24.39;100598.38;5032118;28;20044;-37
2021/05/10 06:28:12;;;;;;;9.45;4.50;;;;;;;26.37;24.83;100599.19;5031931;28;20025;-37
2021/05/10 06:30:37;;;;;;;10.95;6.03;;;;;;;25.56;25.99;100602.31;5031522;28;20036;-37
2021/05/10 06:33:03;;;;;;;10.95;6.20;;;;;;;25.47;26.49;100601.25;5032205;28;20056;-37
2021/05/10 06:35:28;;;;;;;7.22;4.00;;;;;;;26.11;25.45;100597.53;5032451;28;20049;-38
2021/05/10 06:37:54;;;;;;;13.77;5.03;;;;;;;26.81;24.85;100596.28;5031958;28;20028;-38
2021/05/10 06:40:19;;;;;;;13.43;4.78;;;;;;;26.75;24.80;100593.88;5037148;28;20021;-37
2021/05/10 06:42:45;;;;;;;5.90;4.03;;;;;;;27.60;24.02;100587.56;5042794;28;20018;-38
2021/05/10 06:45:10;;;;;;;6.93;4.10;;;;;;;27.32;24.17;100589.34;5044756;28;20116;-37
2021/05/10 06:47:39;;;;;;;5.93;3.88;;;;;;;28.01;23.19;100589.66;5040718;28;20497;-38
2021/05/10 06:50:05;;;;;;;7.75;4.13;;;;;;;27.95;23.46;100584.56;5036027;28;20017;-38
2021/05/10 06:52:31;;;;;;;5.55;3.28;;;;;;;28.15;23.11;100578.75;5044876;28;20033;-37
2021/05/10 06:54:57;;;;;;;6.80;3.20;;;;;;;28.75;22.70;100582.56;5043184;28;20025;-37
2021/05/10 06:57:22;;;;;;;6.43;3.20;;;;;;;28.54;22.34;100582.16;5052132;28;20036;-37
2021/05/10 06:59:47;;;;;;;6.22;3.03;;;;;;;28.81;22.08;100579.44;5034173;28;20028;-37
2021/05/10 07:02:13;;;;;;;5.53;2.90;;;;;;;27.75;23.71;100582.97;5036673;28;20091;-38
2021/05/10 07:04:38;;;;;;;4.18;2.83;;;;;;;27.21;23.78;100580.47;5043319;28;20444;-37
2021/05/10 07:07:04;;;;;;;6.32;3.00;;;;;;;27.02;24.33;100579.66;5043976;28;20021;-38
2021/05/10 07:09:29;;;;;;;8.05;3.00;;;;;;;27.22;24.25;100575.81;5036775;28;20021;-38
2021/05/10 07:11:55;;;;;;;4.90;2.78;;;;;;;27.22;23.96;100568.41;5049317;28;20021;-37
2021/05/10 07:14:21;;;;;;;3.28;2.95;;;;;;;26.52;24.76;100571.75;5045623;28;20037;-36
2021/05/10 07:16:46;;;;;;;4.95;2.80;;;;;;;26.65;24.64;100576.53;5041135;28;20035;-36
2021/05/10 07:19:12;;;;;;;6.85;3.42;;;;;;;27.25;24.31;100572.53;5038486;28;20048;-37
2021/05/10 07:21:38;;;;;;;9.02;3.55;;;;;;;26.92;24.47;100570.47;5048135;28;20017;-37
2021/05/10 07:24:03;;;;;;;10.93;4.18;;;;;;;27.11;23.84;100566.94;5047938;28;20446;-38
2021/05/10 07:26:29;;;;;;;6.10;3.08;;;;;;;27.42;24.15;100564.63;5038608;28;20017;-38
2021/05/10 07:28:54;;;;;;;6.72;3.50;;;;;;;27.02;24.55;100561.34;5040633;28;20026;-38
2021/05/10 07:31:20;;;;;;;6.85;3.42;;;;;;;27.62;23.82;100558.00;5045842;28;20025;-38
2021/05/10 07:33:45;;;;;;;5.78;3.33;;;;;;;28.39;23.46;100562.16;5034312;28;20033;-38
2021/05/10 07:36:11;;;;;;;6.97;3.30;;;;;;;28.88;22.62;100559.03;5046372;28;20044;-37
2021/05/10 07:38:36;;;;;;;5.78;3.60;;;;;;;29.11;22.41;100560.72;5031251;28;20026;-36
2021/05/10 07:41:02;;;;;;;5.75;3.50;;;;;;;29.17;21.39;100551.28;5042509;28;20048;-37
2021/05/10 07:43:28;;;;;;;7.15;3.35;;;;;;;28.75;21.90;100557.91;5034880;28;20028;-38
2021/05/10 07:45:53;;;;;;;6.47;3.40;;;;;;;28.94;21.21;100550.41;5049901;28;20679;-38
2021/05/10 07:48:19;;;;;;;4.65;3.35;;;;;;;28.30;21.86;100549.50;5039767;28;20350;-38
2021/05/10 07:50:44;;;;;;;8.05;3.47;;;;;;;27.49;22.76;100550.56;5041952;28;20033;-37
2021/05/10 07:53:10;;;;;;;5.93;3.40;;;;;;;28.16;22.46;100554.94;5043949;28;20083;-37
2021/05/10 07:55:37;;;;;;;4.63;3.20;;;;;;;27.78;23.07;100552.28;5035117;28;20091;-48
2021/05/10 07:58:02;;;;;;;5.25;3.95;;;;;;;27.84;22.95;100549.19;5047520;28;20021;-51
2021/05/10 08:00:33;;;;;;;5.55;3.40;;;;;;;27.89;23.41;100545.56;5038417;28;20020;-51
2021/05/10 08:03:09;;;;;;;5.97;3.30;;;;;;;28.79;22.92;100557.00;5040190;28;20036;-51
2021/05/10 08:05:35;;;;;;;6.00;3.50;;;;;;;29.03;22.18;100550.47;5046997;28;20075;-51
2021/05/10 08:08:01;;;;;;;5.63;3.40;;;;;;;28.63;22.66;100551.03;5034215;28;20456;-51
2021/05/10 08:10:27;;;;;;;6.03;3.50;;;;;;;29.05;21.89;100540.00;5043797;28;20465;-49
2021/05/10 08:12:52;;;;;;;7.75;3.42;;;;;;;29.49;21.76;100537.66;5040667;28;20033;-52
2021/05/10 08:15:18;;;;;;;4.65;3.50;;;;;;;29.42;21.94;100538.09;5036417;28;20033;-50
2021/05/10 08:17:43;;;;;;;7.38;3.90;;;;;;;29.55;21.90;100534.50;5046118;28;20021;-50
2021/05/10 08:20:09;;;;;;;8.55;3.65;;;;;;;29.86;21.79;100533.75;5034224;28;20028;-50
2021/05/10 08:22:35;;;;;;;9.75;3.28;;;;;;;30.27;21.08;100523.59;5042047;28;20397;-51
2021/05/10 08:25:00;;;;;;;6.80;3.55;;;;;;;29.48;21.85;100525.88;5040821;28;20475;-50
2021/05/10 08:27:26;;;;;;;8.15;3.95;;;;;;;28.14;22.86;100521.59;5032939;28;20453;-49
2021/05/10 08:29:51;;;;;;;9.63;4.38;;;;;;;28.63;21.89;100512.69;5044240;28;20078;-51
2021/05/10 08:32:17;;;;;;;7.65;4.18;;;;;;;27.39;23.29;100523.41;5029790;28;20123;-52
2021/05/10 08:34:42;;;;;;;6.03;4.47;;;;;;;26.08;24.78;100516.31;5029901;28;20474;-52
2021/05/10 08:37:08;;;;;;;5.85;4.47;;;;;;;26.49;23.99;100515.03;5030088;28;20017;-51
2021/05/10 08:39:33;;;;;;;6.95;4.00;;;;;;;26.78;24.52;100514.16;5030398;28;20017;-51
2021/05/10 08:41:59;;;;;;;8.50;3.95;;;;;;;26.85;24.69;100512.69;5030184;28;20096;-49
2021/05/10 08:44:24;;;;;;;5.38;4.22;;;;;;;25.83;25.58;100511.06;5029383;28;20044;-51
2021/05/10 08:46:50;;;;;;;8.75;4.50;;;;;;;25.52;25.90;100514.84;5028786;28;20137;-50
2021/05/10 08:49:19;;;;;;;9.43;4.25;;;;;;;26.23;24.71;100512.59;5029061;28;20036;-49
2021/05/10 08:51:45;;;;;;;6.05;4.30;;;;;;;25.79;25.42;100512.72;5029610;28;20021;-51
2021/05/10 08:54:25;;;;;;;7.03;4.30;;;;;;;26.19;24.93;100506.09;5029564;28;20026;-50
2021/05/10 08:56:50;;;;;;;;;;;;;;;26.77;24.42;100501.59;5028919;28;20022;-51
2021/05/10 08:59:17;;;;;;;8.05;4.50;;;;;;;27.21;23.59;100503.19;5028896;28;19909;-51
2021/05/10 09:02:07;;;;;;;7.75;4.75;;;;;;;27.41;23.42;100499.31;5028455;28;20159;-50
2021/05/10 09:04:40;;;;;;;5.70;4.57;;;;;;;26.82;24.23;100494.16;5030085;28;20055;-51
2021/05/10 09:07:23;;;;;;;9.82;4.68;;;;;;;26.98;24.36;100485.75;5029857;28;20264;-51
2021/05/10 09:09:55;;;;;;;7.95;4.45;;;;;;;27.41;24.30;100481.00;5029963;28;20561;-51
2021/05/10 09:12:22;;;;;;;7.75;4.43;;;;;;;27.53;24.41;100475.09;5028865;28;20438;-50
2021/05/10 09:14:47;;;;;;;9.57;5.30;;;;;;;27.93;24.11;100471.94;5029280;28;20052;-51
2021/05/10 09:17:13;;;;;;;9.43;5.75;;;;;;;26.25;25.43;100468.66;5029867;28;20417;-50
2021/05/10 09:19:49;;;;;;;6.50;4.93;;;;;;;27.20;24.91;100463.28;5011994;28;20029;-48
2021/05/10 09:22:15;;;;;;;8.57;4.80;;;;;;;26.17;25.50;100461.94;5029531;28;20060;-50
2021/05/10 09:24:45;;;;;;;7.75;4.03;;;;;;;26.49;25.54;100452.28;5028356;28;20018;-52
2021/05/10 09:27:43;;;;;;;8.27;4.20;;;;;;;23.84;28.15;100451.13;5030160;28;20072;-50
2021/05/10 09:30:21;;;;;;;8.27;4.25;;;;;;;23.82;29.03;100451.41;4995645;28;20040;-50
2021/05/10 09:32:51;;;;;;;7.50;3.75;;;;;;;23.08;28.95;100452.78;5029990;28;20036;-49
2021/05/10 09:35:31;;;;;;;6.72;3.78;;;;;;;22.87;30.11;100444.56;5029619;28;20089;-50
2021/05/10 09:38:00;;;;;;;7.93;4.18;;;;;;;23.27;29.79;100448.44;5029410;28;20027;-52
2021/05/10 09:40:31;;;;;;;5.13;3.58;;;;;;;24.40;28.15;100451.75;5028392;28;20021;-49
2021/05/10 09:42:58;;;;;;;6.07;3.88;;;;;;;24.74;27.51;100447.56;5029802;28;20048;-48
2021/05/10 09:45:31;;;;;;;9.90;3.60;;;;;;;25.33;26.73;100443.91;5029537;28;20104;-50
2021/05/10 09:48:30;;;;;;;6.15;3.60;;;;;;;25.97;26.20;100432.16;5029376;28;20107;-48
2021/05/10 09:51:02;;;;;;;6.60;3.55;;;;;;;25.30;26.99;100430.88;5015512;28;20041;-50
2021/05/10 09:53:35;;;;;;;11.88;3.25;;;;;;;25.84;26.26;100422.75;5029036;28;20037;-48
2021/05/10 09:56:01;;;;;;;4.32;3.30;;;;;;;24.83;27.92;100431.44;5029164;28;20030;-48
2021/05/10 09:58:46;;;;;;;7.65;3.97;;;;;;;24.54;28.37;100418.53;5029408;28;20133;-51
2021/05/10 10:01:11;;;;;;;7.15;3.20;;;;;;;24.11;29.18;100421.72;5029537;28;20059;-50
2021/05/10 10:03:50;;;;;;;4.97;3.33;;;;;;;24.24;28.86;100414.03;5028361;28;20416;-51
2021/05/10 10:06:19;;;;;;;4.60;3.58;;;;;;;24.70;28.95;100414.66;5028949;28;20386;-52
2021/05/10 10:08:49;;;;;;;5.47;3.95;;;;;;;25.48;26.81;100409.47;5032752;28;20068;-52
2021/05/10 10:11:19;;;;;;;5.45;3.20;;;;;;;25.17;27.79;100413.25;5039308;28;20559;-49
2021/05/10 10:13:47;;;;;;;8.40;2.83;;;;;;;24.77;28.78;100404.28;5032843;28;20088;-51
2021/05/10 10:16:13;;;;;;;4.32;2.92;;;;;;;24.84;28.27;100401.22;5032557;28;20037;-51
2021/05/10 10:18:39;;;;;;;5.30;2.90;;;;;;;25.54;27.55;100387.31;5015860;28;20398;-52
2021/05/10 10:21:06;;;;;;;4.95;2.80;;;;;;;25.15;27.38;100392.81;5039367;28;20039;-50
2021/05/10 10:23:31;;;;;;;4.60;2.30;;;;;;;24.43;28.14;100385.13;5040194;28;20120;-49
2021/05/10 10:25:57;;;;;;;4.43;2.92;;;;;;;24.46;28.28;100384.56;5018789;28;20036;-51
2021/05/10 10:28:24;;;;;;;3.58;2.20;;;;;;;25.76;27.37;100375.13;5043038;28;20028;-49
2021/05/10 10:30:54;;;;;;;3.05;2.30;;;;;;;25.26;27.63;100393.59;5034738;28;20057;-50
2021/05/10 10:33:23;;;;;;;3.58;2.10;;;;;;;26.07;25.82;100372.06;5043122;28;20163;-50
2021/05/10 10:35:48;;;;;;;2.88;2.22;;;;;;;25.95;26.46;100367.03;5041044;28;20021;-52
2021/05/10 10:38:24;;;;;;;4.20;2.42;;;;;;;25.29;27.29;100365.78;5019062;28;20045;-49
2021/05/10 10:41:14;;;;;;;5.03;2.72;;;;;;;25.23;27.57;100372.41;5046960;28;20128;-49
2021/05/10 10:43:40;;;;;;;5.63;2.60;;;;;;;24.93;28.27;100355.97;5039844;28;20056;-50
2021/05/10 10:46:26;;;;;;;5.03;2.30;;;;;;;25.86;27.80;100349.66;5037997;28;20022;-50
2021/05/10 10:48:53;;;;;;;4.63;2.50;;;;;;;26.17;26.98;100341.91;5047184;28;20079;-49
2021/05/10 10:51:19;;;;;;;8.32;2.20;;;;;;;25.86;27.24;100347.75;5037773;28;20029;-51
2021/05/10 10:53:53;;;;;;;4.20;2.20;;;;;;;24.77;28.30;100347.13;5041297;28;20044;-49
2021/05/10 10:56:19;;;;;;;5.43;2.10;;;;;;;25.78;27.12;100334.75;5046299;28;20421;-52
2021/05/10 10:58:46;;;;;;;3.70;2.13;;;;;;;26.05;26.45;100325.19;5015300;28;20057;-49
2021/05/10 11:01:19;;;;;;;2.85;1.92;;;;;;;25.92;27.17;100341.16;5045707;28;20029;-51
2021/05/10 11:03:46;;;;;;;2.67;1.92;;;;;;;23.86;29.25;100332.94;5041522;28;20033;-51
2021/05/10 11:06:12;;;;;;;5.32;2.20;;;;;;;23.06;30.98;100316.53;5036940;28;20024;-52
2021/05/10 11:08:43;;;;;;;3.28;2.20;;;;;;;24.40;30.11;100314.97;5045976;28;20029;-51
2021/05/10 11:11:09;;;;;;;6.00;2.00;;;;;;;25.93;27.47;100310.06;5036744;28;20672;-50
2021/05/10 11:13:37;;;;;;;4.40;2.10;;;;;;;24.85;28.18;100309.53;5024513;28;20060;-51
2021/05/10 11:16:08;;;;;;;5.18;2.10;;;;;;;25.01;27.67;100297.38;5044090;28;20082;-50
2021/05/10 11:18:46;;;;;;;3.95;2.20;;;;;;;24.99;28.56;100299.59;5033007;28;20485;-51
2021/05/10 11:21:26;;;;;;;7.93;2.17;;;;;;;25.60;27.15;100292.72;5045373;28;20339;-50
2021/05/10 11:23:58;;;;;;;5.25;2.13;;;;;;;25.49;27.02;100289.31;5042626;28;20162;-51
2021/05/10 11:26:56;;;;;;;2.40;1.88;;;;;;;25.55;26.97;100295.50;5035524;28;20033;-52
2021/05/10 11:29:28;;;;;;;3.33;2.10;;;;;;;26.00;26.39;100285.16;5025479;28;20112;-50